Time;durP1;ratioP1;P1;durP2;ratioP2;P2;SDS_P1;SDS_P2;PMS_P1;PMS_P2;Temp;Humidity;BMP_temperature;BMP_pressure;BME280_temperature;BME280_humidity;BME280_pressure;Samples;Min_cycle;Max_cycle;Signal;HPM_P1;HPM_P2
2022/07/11 00:02:04;;;;;;;1.42;0.98;;;19.00;99.90;;;;;;5015877;28;20301;-89
2022/07/11 00:04:31;;;;;;;2.30;1.00;;;19.00;99.90;;;;;;5020389;28;20684;-88
2022/07/11 00:06:58;;;;;;;1.10;0.90;;;19.00;99.90;;;;;;5029311;28;20290;-89
2022/07/11 00:09:25;;;;;;;1.20;1.10;;;19.00;99.90;;;;;;5021360;28;20205;-89
2022/07/11 00:11:52;;;;;;;1.67;1.27;;;19.00;99.90;;;;;;5021461;28;20208;-89
2022/07/11 00:14:21;;;;;;;1.85;1.20;;;19.00;99.90;;;;;;5028780;28;20207;-90
2022/07/11 00:16:48;;;;;;;1.42;1.00;;;19.00;99.90;;;;;;5025093;28;20228;-90
2022/07/11 00:19:17;;;;;;;1.23;0.90;;;18.90;99.90;;;;;;5027957;28;20188;-91
2022/07/11 00:21:44;;;;;;;1.48;1.38;;;18.90;99.90;;;;;;5028826;28;20199;-91
2022/07/11 00:24:10;;;;;;;2.38;1.15;;;18.90;99.90;;;;;;5019384;28;20588;-90
2022/07/11 00:26:38;;;;;;;1.17;1.00;;;18.90;99.90;;;;;;5026664;28;20646;-91
2022/07/11 00:29:05;;;;;;;1.27;0.93;;;18.90;99.90;;;;;;5032323;28;20200;-92
2022/07/11 00:31:32;;;;;;;1.60;1.00;;;18.90;99.90;;;;;;5024144;28;20224;-93
2022/07/11 00:33:59;;;;;;;1.10;1.00;;;18.90;99.90;;;;;;5029225;28;20199;-90
2022/07/11 00:36:27;;;;;;;1.35;1.08;;;18.90;99.90;;;;;;5032507;28;20203;-91
2022/07/11 00:38:54;;;;;;;1.13;1.00;;;18.90;99.90;;;;;;5023641;28;20671;-91
2022/07/11 00:41:21;;;;;;;28.00;26.63;;;18.80;99.90;;;;;;5029638;28;20203;-89
2022/07/11 00:43:53;;;;;;;2.00;0.98;;;18.80;99.90;;;;;;5030682;28;20197;-89
2022/07/11 00:46:20;;;;;;;1.00;0.85;;;18.80;99.90;;;;;;5022881;28;20283;-88
2022/07/11 00:48:47;;;;;;;1.30;1.20;;;18.80;99.90;;;;;;5025751;28;20193;-89
2022/07/11 00:51:14;;;;;;;1.30;1.00;;;18.80;99.90;;;;;;5030018;28;20215;-90
2022/07/11 00:53:43;;;;;;;1.30;1.10;;;18.80;99.90;;;;;;5017736;28;20196;-91
2022/07/11 00:56:10;;;;;;;1.35;0.90;;;18.80;99.90;;;;;;5024190;28;20208;-90
2022/07/11 00:58:37;;;;;;;1.08;0.98;;;18.80;99.90;;;;;;5028009;28;20414;-89
2022/07/11 01:01:05;;;;;;;1.80;1.10;;;18.80;99.90;;;;;;5025008;28;20201;-89
2022/07/11 01:03:35;;;;;;;1.83;1.30;;;18.80;99.90;;;;;;5031783;28;20211;-89
2022/07/11 01:06:02;;;;;;;1.20;1.00;;;18.80;99.90;;;;;;5030497;28;20240;-90
2022/07/11 01:08:31;;;;;;;1.33;1.10;;;18.80;99.90;;;;;;5027030;28;20197;-90
2022/07/11 01:11:01;;;;;;;2.10;1.35;;;18.80;99.90;;;;;;5022381;28;20641;-88
2022/07/11 01:13:28;;;;;;;1.52;1.13;;;18.80;99.90;;;;;;5025295;28;20688;-89
2022/07/11 01:16:08;;;;;;;1.60;1.15;;;18.70;99.90;;;;;;5024998;28;20212;-90
2022/07/11 01:18:35;;;;;;;2.13;1.13;;;18.70;99.90;;;;;;5019860;28;20199;-90
2022/07/11 01:21:02;;;;;;;2.72;1.17;;;18.70;99.90;;;;;;5023387;28;20475;-90
2022/07/11 01:23:32;;;;;;;1.15;1.05;;;18.70;99.90;;;;;;5031974;28;20195;-91
2022/07/11 01:25:59;;;;;;;1.30;1.20;;;18.70;99.90;;;;;;5033429;28;20231;-90
2022/07/11 01:28:25;;;;;;;1.30;1.20;;;18.70;99.90;;;;;;5019205;28;20582;-91
2022/07/11 01:30:52;;;;;;;1.00;0.80;;;18.70;99.90;;;;;;5025108;28;20198;-90
2022/07/11 01:33:19;;;;;;;2.47;1.30;;;18.70;99.90;;;;;;5025955;28;20279;-90
2022/07/11 01:35:45;;;;;;;2.75;1.45;;;18.70;99.90;;;;;;5028953;28;20194;-89
2022/07/11 01:38:12;;;;;;;1.52;1.42;;;18.70;99.90;;;;;;5019907;28;20205;-90
2022/07/11 01:40:40;;;;;;;1.42;1.33;;;18.60;99.90;;;;;;5026041;28;20589;-89
2022/07/11 01:43:07;;;;;;;2.42;1.10;;;18.60;99.90;;;;;;5028420;28;20207;-91
2022/07/11 01:45:33;;;;;;;1.77;1.25;;;18.60;99.90;;;;;;5031222;28;20196;-91
2022/07/11 01:48:00;;;;;;;3.28;1.33;;;18.60;99.90;;;;;;5027228;28;20254;-90
2022/07/11 01:50:27;;;;;;;1.38;1.20;;;18.60;99.90;;;;;;5029548;28;20219;-90
2022/07/11 01:52:53;;;;;;;1.38;1.20;;;18.60;99.90;;;;;;5017410;28;20227;-90
2022/07/11 01:55:20;;;;;;;1.30;1.20;;;18.60;99.90;;;;;;5031271;28;20683;-90
2022/07/11 01:57:48;;;;;;;3.30;1.05;;;18.60;99.90;;;;;;5031913;28;20203;-89
2022/07/11 02:00:15;;;;;;;2.33;1.20;;;18.60;99.90;;;;;;5028440;28;20219;-89
2022/07/11 02:02:42;;;;;;;1.95;1.73;;;18.60;99.90;;;;;;5029925;28;20590;-91
2022/07/11 02:05:09;;;;;;;1.25;1.00;;;18.60;99.90;;;;;;5024953;28;20191;-90
2022/07/11 02:10:20;;;;;;;2.65;1.38;;;18.60;99.90;;;;;;5022620;28;20251;-89
2022/07/11 02:12:48;;;;;;;1.35;1.08;;;18.60;99.90;;;;;;5028199;28;20224;-88
2022/07/11 02:15:15;;;;;;;1.27;1.10;;;18.60;99.90;;;;;;5032103;28;20578;-88
2022/07/11 02:17:42;;;;;;;1.50;1.25;;;18.60;99.90;;;;;;5032218;28;20559;-89
2022/07/11 02:20:09;;;;;;;1.50;1.40;;;18.60;99.90;;;;;;5031487;28;20230;-89
2022/07/11 02:22:36;;;;;;;1.20;1.10;;;18.60;99.90;;;;;;5026064;28;20200;-87
2022/07/11 02:25:03;;;;;;;1.98;1.30;;;18.60;99.90;;;;;;5032617;28;20195;-89
2022/07/11 02:27:30;;;;;;;1.40;1.30;;;18.60;99.90;;;;;;5026645;28;20202;-90
2022/07/11 02:29:58;;;;;;;1.35;1.15;;;18.60;99.90;;;;;;5033187;28;20215;-89
2022/07/11 02:32:25;;;;;;;1.45;1.27;;;18.60;99.90;;;;;;5023712;28;20293;-89
2022/07/11 02:34:53;;;;;;;1.20;1.02;;;18.60;99.90;;;;;;5028112;28;20199;-91
2022/07/11 02:37:19;;;;;;;1.25;1.05;;;18.60;99.90;;;;;;5034966;28;20200;-90
2022/07/11 02:39:47;;;;;;;1.20;1.05;;;18.60;99.90;;;;;;5033435;28;20196;-90
2022/07/11 02:42:14;;;;;;;3.50;1.33;;;18.60;99.90;;;;;;5027302;28;20256;-89
2022/07/11 02:44:40;;;;;;;2.55;1.30;;;18.60;99.90;;;;;;5028026;28;20204;-89
2022/07/11 02:47:08;;;;;;;3.40;1.20;;;18.60;99.90;;;;;;5025035;28;20850;-84
2022/07/11 02:49:35;;;;;;;2.05;1.27;;;18.60;99.90;;;;;;5033114;28;20199;-84
2022/07/11 02:52:02;;;;;;;1.63;1.35;;;18.60;99.90;;;;;;5018233;28;20208;-84
2022/07/11 02:54:29;;;;;;;1.10;1.00;;;18.60;99.90;;;;;;5027835;28;20571;-84
2022/07/11 02:56:56;;;;;;;3.10;1.52;;;18.60;99.90;;;;;;5033467;28;20615;-84
2022/07/11 02:59:23;;;;;;;1.58;1.30;;;18.60;99.90;;;;;;5017578;28;20687;-84
2022/07/11 03:01:50;;;;;;;2.08;1.25;;;18.60;99.90;;;;;;5019903;28;20217;-84
2022/07/11 03:04:18;;;;;;;1.35;1.02;;;18.50;99.90;;;;;;5021335;28;20204;-84
2022/07/11 03:06:45;;;;;;;1.50;1.40;;;18.50;99.90;;;;;;5017086;28;20192;-84
2022/07/11 03:09:12;;;;;;;1.10;1.00;;;18.50;99.90;;;;;;5027833;28;20200;-84
2022/07/11 03:11:39;;;;;;;2.13;1.10;;;18.50;99.90;;;;;;5024150;28;20207;-84
2022/07/11 03:14:05;;;;;;;2.45;1.50;;;18.50;99.90;;;;;;5029452;28;20196;-84
2022/07/11 03:16:32;;;;;;;1.60;1.17;;;18.50;99.90;;;;;;5027748;28;20647;-85
2022/07/11 03:18:59;;;;;;;1.20;1.10;;;18.60;99.90;;;;;;5030671;28;20689;-85
2022/07/11 03:21:27;;;;;;;1.42;1.23;;;18.50;99.90;;;;;;5028635;28;20200;-85
2022/07/11 03:23:54;;;;;;;1.73;1.40;;;18.50;99.90;;;;;;5023708;28;20200;-86
2022/07/11 03:26:20;;;;;;;1.30;1.10;;;18.50;99.90;;;;;;5029564;28;20555;-85
2022/07/11 03:28:47;;;;;;;1.50;1.00;;;18.50;99.90;;;;;;5032568;28;20208;-84
2022/07/11 03:31:14;;;;;;;1.23;1.13;;;18.50;99.90;;;;;;5028853;28;20648;-85
2022/07/11 03:33:41;;;;;;;2.90;1.35;;;18.50;99.90;;;;;;5025897;28;20232;-84
2022/07/11 03:36:07;;;;;;;1.85;1.30;;;18.50;99.90;;;;;;5027589;28;20634;-84
2022/07/11 03:38:36;;;;;;;1.95;1.40;;;18.50;99.90;;;;;;5024027;28;20201;-84
2022/07/11 03:41:03;;;;;;;2.17;1.20;;;18.50;99.90;;;;;;5018959;28;20204;-84
2022/07/11 03:43:30;;;;;;;1.40;1.10;;;18.50;99.90;;;;;;5020918;28;20629;-84
2022/07/11 03:45:57;;;;;;;1.40;1.30;;;18.50;99.90;;;;;;5028331;28;20678;-84
2022/07/11 03:48:24;;;;;;;1.40;1.10;;;18.50;99.90;;;;;;5032239;28;20215;-84
2022/07/11 03:50:51;;;;;;;2.08;1.23;;;18.50;99.90;;;;;;5023478;28;20196;-85
2022/07/11 03:53:17;;;;;;;1.30;1.13;;;18.50;99.90;;;;;;5025522;28;20681;-84
2022/07/11 03:55:45;;;;;;;1.90;1.70;;;18.50;99.90;;;;;;5031276;28;20207;-84
2022/07/11 03:58:12;;;;;;;1.67;1.40;;;18.50;99.90;;;;;;5012816;28;20592;-85
2022/07/11 04:00:39;;;;;;;2.35;1.25;;;18.50;99.90;;;;;;5019631;28;20199;-84
2022/07/11 04:03:06;;;;;;;2.25;1.23;;;18.50;99.90;;;;;;5023732;28;20215;-84
2022/07/11 04:05:33;;;;;;;1.58;1.10;;;18.50;99.90;;;;;;5029252;28;20563;-85
2022/07/11 04:07:59;;;;;;;2.30;1.40;;;18.50;99.90;;;;;;5024280;28;20204;-84
2022/07/11 04:10:26;;;;;;;1.85;1.60;;;18.50;99.90;;;;;;5020262;28;20192;-85
2022/07/11 04:12:54;;;;;;;2.60;1.55;;;18.50;99.90;;;;;;5017948;28;20694;-84
2022/07/11 04:15:22;;;;;;;1.48;1.17;;;18.50;99.90;;;;;;5026158;28;20202;-85
2022/07/11 04:17:48;;;;;;;1.27;1.00;;;18.50;99.90;;;;;;5026654;28;20208;-84
2022/07/11 04:20:15;;;;;;;1.38;1.08;;;18.50;99.90;;;;;;5020852;28;20203;-84
2022/07/11 04:22:42;;;;;;;1.27;1.17;;;18.50;99.90;;;;;;5029612;28;20188;-84
2022/07/11 04:25:09;;;;;;;2.50;1.30;;;18.50;99.90;;;;;;5011963;28;20200;-84
2022/07/11 04:27:36;;;;;;;1.40;1.13;;;18.40;99.90;;;;;;5023179;28;20673;-84
2022/07/11 04:30:05;;;;;;;1.60;1.50;;;18.50;99.90;;;;;;5026010;28;20208;-84
2022/07/11 04:32:31;;;;;;;2.08;1.88;;;18.50;99.90;;;;;;5019066;28;20223;-84
2022/07/11 04:34:58;;;;;;;1.60;1.20;;;18.50;99.90;;;;;;5022691;28;20195;-85
2022/07/11 04:37:26;;;;;;;1.95;1.20;;;18.50;99.90;;;;;;5028215;28;20188;-84
2022/07/11 04:39:52;;;;;;;2.03;1.42;;;18.50;99.90;;;;;;5023104;28;20210;-84
2022/07/11 04:42:19;;;;;;;1.98;1.00;;;18.50;99.90;;;;;;5020061;28;20196;-85
2022/07/11 04:44:46;;;;;;;2.20;1.20;;;18.50;99.90;;;;;;5030683;28;20198;-85
2022/07/11 04:47:14;;;;;;;1.08;0.98;;;18.50;99.90;;;;;;5026798;28;20282;-85
2022/07/11 04:49:42;;;;;;;4.32;1.40;;;18.50;99.90;;;;;;5028300;28;20188;-86
2022/07/11 04:52:09;;;;;;;1.48;1.38;;;18.50;99.90;;;;;;5028827;28;20196;-86
2022/07/11 04:54:35;;;;;;;1.88;1.30;;;18.40;99.90;;;;;;5015255;28;20203;-86
2022/07/11 04:57:02;;;;;;;1.40;1.30;;;18.40;99.90;;;;;;5019941;28;20215;-86
2022/07/11 04:59:29;;;;;;;4.03;1.50;;;18.50;99.90;;;;;;5030097;28;20206;-85
2022/07/11 05:01:55;;;;;;;1.90;1.10;;;18.50;99.90;;;;;;5028169;28;20222;-86
2022/07/11 05:04:24;;;;;;;2.17;1.80;;;18.50;99.90;;;;;;5029555;28;20196;-85
2022/07/11 05:06:50;;;;;;;3.15;1.35;;;18.50;99.90;;;;;;5027929;28;20613;-84
2022/07/11 05:09:17;;;;;;;1.40;1.10;;;18.50;99.90;;;;;;5021264;28;20196;-84
2022/07/11 05:11:44;;;;;;;1.23;1.13;;;18.50;99.90;;;;;;5026521;28;20196;-84
2022/07/11 05:14:10;;;;;;;1.80;1.40;;;18.50;99.90;;;;;;5027044;28;20687;-84
2022/07/11 05:16:37;;;;;;;1.58;1.23;;;18.50;99.90;;;;;;5020178;28;20203;-84
2022/07/11 05:19:04;;;;;;;4.60;1.33;;;18.50;99.90;;;;;;5025940;28;20669;-85
2022/07/11 05:21:32;;;;;;;3.05;1.50;;;18.50;99.90;;;;;;5029582;28;20207;-84
2022/07/11 05:23:59;;;;;;;2.38;1.75;;;18.50;99.90;;;;;;5025070;28;20207;-84
2022/07/11 05:26:25;;;;;;;1.65;1.20;;;18.50;99.90;;;;;;5030854;28;20227;-84
2022/07/11 05:28:52;;;;;;;1.30;1.20;;;18.50;99.90;;;;;;5026127;28;20211;-82
2022/07/11 05:31:19;;;;;;;1.88;1.35;;;18.50;99.90;;;;;;5016627;28;20678;-85
2022/07/11 05:33:45;;;;;;;2.35;1.90;;;18.50;99.90;;;;;;5020545;28;20215;-85
2022/07/11 05:36:12;;;;;;;2.22;1.10;;;18.50;99.90;;;;;;5024098;28;20223;-84
2022/07/11 05:38:40;;;;;;;1.70;1.40;;;18.50;99.90;;;;;;5021692;28;20196;-84
2022/07/11 05:41:07;;;;;;;2.53;1.95;;;18.60;99.90;;;;;;5018030;28;20192;-84
2022/07/11 05:43:33;;;;;;;1.52;1.25;;;18.60;99.90;;;;;;5028071;28;20558;-84
2022/07/11 05:46:04;;;;;;;1.42;1.33;;;18.50;99.90;;;;;;5027298;28;20192;-84
2022/07/11 05:48:30;;;;;;;2.70;1.38;;;18.50;99.90;;;;;;5019791;28;20197;-84
2022/07/11 05:50:57;;;;;;;1.50;1.00;;;18.50;99.90;;;;;;5028505;28;20199;-84
2022/07/11 05:53:24;;;;;;;1.20;1.00;;;18.60;99.90;;;;;;5019543;28;20212;-84
2022/07/11 05:55:52;;;;;;;1.00;0.90;;;18.60;99.90;;;;;;5025602;28;20218;-84
2022/07/11 05:58:19;;;;;;;1.80;1.20;;;18.60;99.90;;;;;;5032811;28;20188;-84
2022/07/11 06:00:45;;;;;;;1.92;1.30;;;18.60;99.90;;;;;;5027187;28;20650;-85
2022/07/11 06:03:12;;;;;;;1.63;1.00;;;18.60;99.90;;;;;;5028404;28;20212;-84
2022/07/11 06:05:39;;;;;;;1.02;0.80;;;18.60;99.90;;;;;;5027384;28;20797;-84
2022/07/11 06:10:52;;;;;;;1.67;1.05;;;18.60;99.90;;;;;;5026579;28;20686;-84
2022/07/11 06:13:18;;;;;;;1.10;0.95;;;18.60;99.90;;;;;;5025000;28;20214;-84
2022/07/11 06:15:47;;;;;;;1.63;1.00;;;18.60;99.90;;;;;;5030088;28;20201;-86
2022/07/11 06:18:13;;;;;;;1.30;1.15;;;18.60;99.90;;;;;;5025779;28;20195;-85
2022/07/11 06:20:40;;;;;;;1.15;1.02;;;18.60;99.90;;;;;;5022702;28;20294;-84
2022/07/11 06:23:07;;;;;;;2.92;1.92;;;18.60;99.90;;;;;;5028656;28;20668;-84
2022/07/11 06:25:33;;;;;;;1.77;1.15;;;18.60;99.90;;;;;;5030493;28;20214;-85
2022/07/11 06:28:01;;;;;;;1.40;1.10;;;18.60;99.90;;;;;;5017484;28;20504;-84
2022/07/11 06:30:28;;;;;;;1.25;1.15;;;18.60;99.90;;;;;;5028508;28;20216;-84
2022/07/11 06:32:55;;;;;;;1.10;0.80;;;18.60;99.90;;;;;;5018594;28;20462;-83
2022/07/11 06:35:22;;;;;;;1.30;1.17;;;18.60;99.90;;;;;;5033385;28;20742;-85
2022/07/11 06:37:49;;;;;;;1.63;1.30;;;18.60;99.90;;;;;;5031794;28;20571;-84
2022/07/11 06:40:17;;;;;;;1.48;1.08;;;18.60;99.90;;;;;;5024801;28;20200;-85
2022/07/11 06:42:44;;;;;;;1.25;0.95;;;18.60;99.90;;;;;;5030070;28;20200;-85
2022/07/11 06:45:12;;;;;;;1.10;0.88;;;18.60;99.90;;;;;;5033143;28;20639;-85
2022/07/11 06:47:39;;;;;;;1.25;1.10;;;18.60;99.90;;;;;;5027327;28;20571;-85
2022/07/11 06:50:07;;;;;;;1.10;0.93;;;18.60;99.90;;;;;;5028027;28;20206;-85
2022/07/11 06:52:33;;;;;;;2.00;0.93;;;18.60;99.90;;;;;;5027973;28;20208;-85
2022/07/11 06:55:00;;;;;;;1.10;1.00;;;18.60;99.90;;;;;;5026097;28;20219;-84
2022/07/11 06:57:27;;;;;;;1.60;1.00;;;18.60;99.90;;;;;;5033918;28;20658;-85
2022/07/11 06:59:54;;;;;;;1.35;0.95;;;18.60;99.90;;;;;;5020746;28;20674;-84
2022/07/11 07:02:26;;;;;;;1.10;0.90;;;18.60;99.90;;;;;;5023664;28;20212;-85
2022/07/11 07:04:52;;;;;;;1.42;1.05;;;18.60;99.90;;;;;;5030556;28;20568;-84
2022/07/11 07:07:19;;;;;;;1.58;0.98;;;18.60;99.90;;;;;;5031630;28;20661;-83
2022/07/11 07:09:46;;;;;;;1.23;0.90;;;18.60;99.90;;;;;;5023926;28;20200;-85
2022/07/11 07:12:14;;;;;;;1.58;0.90;;;18.60;99.90;;;;;;5030843;28;20200;-85
2022/07/11 07:14:41;;;;;;;1.00;0.90;;;18.60;99.90;;;;;;5030610;28;20226;-83
2022/07/11 07:17:08;;;;;;;1.35;0.80;;;18.60;99.90;;;;;;5027771;28;20622;-84
2022/07/11 07:19:36;;;;;;;1.20;1.10;;;18.60;99.90;;;;;;5026694;28;20204;-84
2022/07/11 07:22:05;;;;;;;1.20;1.00;;;18.60;99.90;;;;;;5018394;28;20571;-82
2022/07/11 07:24:32;;;;;;;1.85;0.90;;;18.60;99.90;;;;;;5025074;28;20197;-82
2022/07/11 07:26:59;;;;;;;1.27;1.08;;;18.60;99.90;;;;;;5014770;28;20668;-84
2022/07/11 07:29:26;;;;;;;1.20;1.10;;;18.70;99.90;;;;;;5032539;28;20548;-82
2022/07/11 07:31:53;;;;;;;1.40;1.25;;;18.70;99.90;;;;;;5030294;28;20209;-84
2022/07/11 07:34:20;;;;;;;1.10;0.90;;;18.70;99.90;;;;;;5017567;28;20267;-82
2022/07/11 07:36:48;;;;;;;1.35;0.90;;;18.70;99.90;;;;;;5012935;28;20212;-82
2022/07/11 07:39:15;;;;;;;1.10;0.90;;;18.70;99.90;;;;;;5022706;28;20257;-82
2022/07/11 07:41:42;;;;;;;1.30;0.98;;;18.70;99.90;;;;;;5023797;28;20637;-82
2022/07/11 07:44:09;;;;;;;1.15;0.90;;;18.70;99.90;;;;;;5016200;28;20227;-82
2022/07/11 07:46:35;;;;;;;1.00;0.90;;;18.70;99.90;;;;;;5020546;28;20572;-82
2022/07/11 07:49:02;;;;;;;3.40;0.90;;;18.70;99.90;;;;;;5021106;28;20210;-82
2022/07/11 07:51:29;;;;;;;1.00;0.80;;;18.70;99.90;;;;;;5026217;28;20953;-82
2022/07/11 07:53:57;;;;;;;1.00;0.80;;;18.70;99.90;;;;;;5016796;28;20246;-82
2022/07/11 07:56:24;;;;;;;1.13;1.00;;;18.70;99.90;;;;;;5018830;28;20190;-82
2022/07/11 07:58:52;;;;;;;1.45;1.00;;;18.70;99.90;;;;;;5012649;28;20208;-81
2022/07/11 08:01:35;;;;;;;1.55;1.10;;;18.70;99.90;;;;;;5012817;28;20202;-84
2022/07/11 08:04:03;;;;;;;1.23;0.90;;;18.80;99.90;;;;;;5021328;28;20781;-83
2022/07/11 08:06:30;;;;;;;0.98;0.80;;;18.70;99.90;;;;;;5020068;28;20196;-83
2022/07/11 08:08:58;;;;;;;1.30;0.90;;;18.80;99.90;;;;;;5025385;28;20202;-82
2022/07/11 08:11:25;;;;;;;1.58;1.08;;;18.80;99.90;;;;;;5023708;28;20211;-82
2022/07/11 08:13:52;;;;;;;1.10;0.90;;;18.80;99.90;;;;;;5020149;28;20211;-83
2022/07/11 08:16:20;;;;;;;1.48;1.00;;;18.80;99.90;;;;;;5023373;28;20199;-84
2022/07/11 08:18:46;;;;;;;2.00;1.17;;;18.80;99.90;;;;;;5031899;28;20200;-81
2022/07/11 08:21:13;;;;;;;1.15;0.80;;;18.80;99.90;;;;;;5024064;28;20247;-84
2022/07/11 08:23:40;;;;;;;1.20;0.80;;;18.80;99.90;;;;;;5022903;28;20196;-82
2022/07/11 08:26:08;;;;;;;1.20;1.10;;;18.90;99.90;;;;;;5023659;28;20218;-82
2022/07/11 08:28:35;;;;;;;0.90;0.70;;;18.90;99.90;;;;;;5028010;28;20211;-81
2022/07/11 08:31:02;;;;;;;1.00;0.80;;;19.00;99.90;;;;;;5020769;28;20199;-83
2022/07/11 08:33:28;;;;;;;1.33;0.80;;;19.00;99.90;;;;;;5024862;28;20594;-82
2022/07/11 08:35:55;;;;;;;1.65;0.90;;;19.00;99.90;;;;;;5018716;28;20652;-82
2022/07/11 08:38:22;;;;;;;1.00;0.80;;;19.00;99.90;;;;;;5019756;28;20192;-81
2022/07/11 08:40:50;;;;;;;1.00;0.75;;;19.00;99.90;;;;;;5022581;28;20204;-82
2022/07/11 08:43:22;;;;;;;2.10;0.90;;;19.00;99.90;;;;;;5027141;28;20208;-82
2022/07/11 08:45:51;;;;;;;1.30;0.90;;;19.00;99.90;;;;;;5027740;28;20193;-82
2022/07/11 08:48:20;;;;;;;1.00;0.73;;;19.10;99.90;;;;;;5023845;28;20197;-81
2022/07/11 08:50:47;;;;;;;1.13;0.82;;;19.20;99.90;;;;;;5019482;28;20197;-82
2022/07/11 08:53:14;;;;;;;0.90;0.70;;;19.30;99.90;;;;;;5023560;28;20614;-81
2022/07/11 08:55:40;;;;;;;1.52;0.75;;;19.40;99.90;;;;;;5024228;28;20201;-82
2022/07/11 08:58:08;;;;;;;1.08;0.80;;;19.40;99.90;;;;;;5020379;28;20202;-81
2022/07/11 09:00:37;;;;;;;1.02;0.80;;;19.50;99.90;;;;;;5023134;28;20195;-81
2022/07/11 09:03:05;;;;;;;1.20;1.00;;;19.40;99.90;;;;;;5014614;28;20215;-82
2022/07/11 09:05:32;;;;;;;1.10;0.65;;;19.40;99.90;;;;;;5013420;28;20674;-81
2022/07/11 09:07:59;;;;;;;0.90;0.70;;;19.30;99.90;;;;;;5025846;28;20232;-82
2022/07/11 09:10:26;;;;;;;1.45;0.75;;;19.30;99.90;;;;;;5014267;28;20204;-81
2022/07/11 09:13:01;;;;;;;1.63;0.90;;;19.30;99.90;;;;;;5020254;28;20204;-82
2022/07/11 09:15:37;;;;;;;1.00;0.75;;;19.20;99.90;;;;;;5023026;28;20219;-82
2022/07/11 09:18:05;;;;;;;1.05;0.80;;;19.20;99.90;;;;;;5019274;28;20211;-81
2022/07/11 09:26:22;;;;;;;1.00;0.70;;;19.10;99.90;;;;;;5026696;28;20601;-81
2022/07/11 09:29:03;;;;;;;1.00;0.75;;;19.10;99.90;;;;;;5021709;28;20208;-81
2022/07/11 09:31:32;;;;;;;1.00;0.70;;;19.10;99.90;;;;;;5026204;28;20254;-81
2022/07/11 09:34:01;;;;;;;0.90;0.75;;;19.10;99.90;;;;;;5022208;28;20225;-81
2022/07/11 09:36:35;;;;;;;1.10;0.85;;;19.10;99.90;;;;;;5019207;28;20196;-81
2022/07/11 09:39:02;;;;;;;0.90;0.80;;;19.10;99.90;;;;;;5011933;28;20252;-81
2022/07/11 09:41:32;;;;;;;1.00;0.80;;;19.00;99.90;;;;;;5028444;28;20201;-81
2022/07/11 09:44:11;;;;;;;0.90;0.70;;;19.10;99.90;;;;;;5027244;28;20294;-80
2022/07/11 09:46:39;;;;;;;1.10;0.80;;;19.10;99.90;;;;;;5029551;28;20192;-84
2022/07/11 09:49:07;;;;;;;1.65;0.80;;;19.10;99.90;;;;;;5030764;28;20204;-82
2022/07/11 09:51:34;;;;;;;0.80;0.60;;;19.10;99.90;;;;;;5033176;28;20205;-83
2022/07/11 09:54:04;;;;;;;0.90;0.60;;;19.10;99.90;;;;;;5023404;28;20563;-81
2022/07/11 09:56:35;;;;;;;1.10;0.80;;;19.10;99.90;;;;;;5029599;28;20197;-81
2022/07/11 09:59:03;;;;;;;0.90;0.70;;;19.10;99.90;;;;;;5023959;28;20212;-82
2022/07/11 10:01:31;;;;;;;1.10;0.95;;;19.20;99.90;;;;;;5026192;28;20200;-81
2022/07/11 10:03:59;;;;;;;1.10;0.90;;;19.20;99.90;;;;;;5024887;28;20202;-82
2022/07/11 10:06:26;;;;;;;0.90;0.70;;;19.20;99.90;;;;;;5032715;28;20651;-81
2022/07/11 10:08:54;;;;;;;1.38;0.73;;;19.30;99.90;;;;;;5022408;28;20206;-81
2022/07/11 10:11:21;;;;;;;1.38;1.10;;;19.30;99.90;;;;;;5032853;28;20197;-81
2022/07/11 10:13:48;;;;;;;0.90;0.70;;;19.30;99.90;;;;;;5022171;28;20201;-80
2022/07/11 10:16:23;;;;;;;1.00;0.70;;;19.40;99.90;;;;;;5028716;28;20202;-82
2022/07/11 10:19:03;;;;;;;0.90;0.70;;;19.40;99.90;;;;;;5027704;28;20191;-83
2022/07/11 10:21:43;;;;;;;1.15;0.70;;;19.40;99.90;;;;;;5026504;28;20205;-81
2022/07/11 10:24:24;;;;;;;0.90;0.70;;;19.40;99.90;;;;;;5023592;28;20558;-80
2022/07/11 10:27:00;;;;;;;0.80;0.60;;;19.40;99.90;;;;;;5024630;28;20196;-80
2022/07/11 10:29:32;;;;;;;0.90;0.60;;;19.30;99.90;;;;;;5026059;28;20209;-80
2022/07/11 10:32:06;;;;;;;1.20;0.90;;;19.30;99.90;;;;;;5026045;28;20205;-81
2022/07/11 10:34:34;;;;;;;1.50;0.77;;;19.30;99.90;;;;;;5023293;28;20222;-82
2022/07/11 10:37:03;;;;;;;0.80;0.60;;;19.30;99.90;;;;;;5028739;28;20202;-82
2022/07/11 10:39:32;;;;;;;0.90;0.70;;;19.30;99.90;;;;;;5012264;28;20680;-83
2022/07/11 10:42:00;;;;;;;1.00;0.77;;;19.30;99.90;;;;;;5021129;28;20213;-82
2022/07/11 10:44:28;;;;;;;0.90;0.70;;;19.30;99.90;;;;;;5025206;28;20203;-84
2022/07/11 10:46:55;;;;;;;1.20;0.80;;;19.30;99.90;;;;;;5028791;28;20207;-82
2022/07/11 10:49:37;;;;;;;0.90;0.60;;;19.30;99.90;;;;;;5027211;28;20208;-81
2022/07/11 10:52:06;;;;;;;0.90;0.68;;;19.40;99.90;;;;;;5015240;28;20263;-81
2022/07/11 10:54:51;;;;;;;0.90;0.70;;;19.40;99.90;;;;;;5023560;28;20700;-83
2022/07/11 10:57:23;;;;;;;1.00;0.73;;;19.40;99.90;;;;;;5027284;28;20696;-83
2022/07/11 11:00:01;;;;;;;1.73;0.80;;;19.40;99.90;;;;;;5027666;28;20292;-83
2022/07/11 11:02:33;;;;;;;2.55;0.82;;;19.50;99.90;;;;;;5030306;28;20220;-81
2022/07/11 11:05:03;;;;;;;0.90;0.70;;;19.60;99.90;;;;;;5024420;28;20201;-81
2022/07/11 11:07:41;;;;;;;1.20;0.95;;;19.60;99.90;;;;;;5023015;28;20205;-82
2022/07/11 11:10:51;;;;;;;1.00;0.90;;;19.70;99.90;;;;;;5025992;28;20714;-81
2022/07/11 11:13:20;;;;;;;0.80;0.60;;;19.80;99.90;;;;;;5025451;28;20210;-81
2022/07/11 11:15:49;;;;;;;1.10;0.90;;;19.90;99.90;;;;;;5030677;28;20220;-80
2022/07/11 11:18:36;;;;;;;1.30;0.70;;;19.90;99.90;;;;;;5015204;28;20278;-81
2022/07/11 11:21:24;;;;;;;1.15;0.90;;;20.00;99.90;;;;;;5011772;28;20595;-81
2022/07/11 11:24:07;;;;;;;1.10;0.70;;;20.00;99.90;;;;;;5018530;28;20201;-81
2022/07/11 11:26:46;;;;;;;0.90;0.60;;;20.00;99.90;;;;;;5028210;28;20286;-80
2022/07/11 11:29:18;;;;;;;0.90;0.70;;;20.00;99.90;;;;;;5014908;28;20214;-81
2022/07/11 11:31:50;;;;;;;1.13;0.70;;;20.00;99.90;;;;;;5026400;28;20199;-82
2022/07/11 11:34:16;;;;;;;0.95;0.70;;;20.00;99.90;;;;;;5016895;28;20195;-81
2022/07/11 11:36:52;;;;;;;0.90;0.70;;;20.00;99.90;;;;;;5025564;28;20670;-81
2022/07/11 11:39:23;;;;;;;1.10;0.75;;;20.00;99.90;;;;;;5020982;28;20203;-81
2022/07/11 11:41:50;;;;;;;0.90;0.60;;;20.00;99.90;;;;;;5017782;28;20203;-82
2022/07/11 11:44:16;;;;;;;1.05;0.77;;;20.10;99.90;;;;;;5025043;28;20202;-82
2022/07/11 11:46:43;;;;;;;0.90;0.68;;;20.10;99.90;;;;;;5018156;28;20266;-81
2022/07/11 11:49:10;;;;;;;1.00;0.70;;;20.10;99.90;;;;;;5032646;28;20654;-81
2022/07/11 11:51:37;;;;;;;1.23;0.70;;;20.10;99.90;;;;;;5031126;28;20541;-81
2022/07/11 11:54:05;;;;;;;1.25;0.98;;;20.10;99.90;;;;;;5014640;28;20198;-83
2022/07/11 11:56:34;;;;;;;0.90;0.60;;;20.10;99.90;;;;;;5012219;28;20568;-83
2022/07/11 11:59:04;;;;;;;0.90;0.70;;;20.20;99.90;;;;;;5027091;28;20217;-80
2022/07/11 12:01:33;;;;;;;1.20;0.90;;;20.20;99.90;;;;;;5025746;28;20693;-81
2022/07/11 12:04:01;;;;;;;1.00;0.75;;;20.20;99.90;;;;;;5025787;28;20213;-81
2022/07/11 12:06:29;;;;;;;1.00;0.73;;;20.30;99.90;;;;;;5027582;28;20209;-81
2022/07/11 12:09:00;;;;;;;0.90;0.60;;;20.30;99.90;;;;;;5028970;28;20682;-81
2022/07/11 12:11:28;;;;;;;1.00;0.70;;;20.30;99.90;;;;;;5025406;28;20188;-81
2022/07/11 12:13:57;;;;;;;3.50;0.70;;;20.40;99.90;;;;;;5016701;28;20655;-82
2022/07/11 12:16:41;;;;;;;0.90;0.70;;;20.40;99.90;;;;;;5018020;28;20249;-81
2022/07/11 12:19:09;;;;;;;0.90;0.60;;;20.40;99.90;;;;;;5022374;28;20257;-81
2022/07/11 12:21:36;;;;;;;1.10;0.70;;;20.40;99.90;;;;;;5025990;28;20586;-80
2022/07/11 12:24:05;;;;;;;0.90;0.80;;;20.40;99.90;;;;;;5020781;28;20611;-80
2022/07/11 12:26:37;;;;;;;0.90;0.60;;;20.50;99.90;;;;;;5023650;28;20203;-81
2022/07/11 12:29:10;;;;;;;0.90;0.67;;;20.50;99.90;;;;;;5023855;28;20472;-82
2022/07/11 12:31:45;;;;;;;1.00;0.70;;;20.50;99.90;;;;;;5022713;28;20472;-81
2022/07/11 12:34:12;;;;;;;1.65;0.80;;;20.50;99.90;;;;;;5016754;28;20563;-81
2022/07/11 12:36:39;;;;;;;0.82;0.70;;;20.50;99.90;;;;;;5025890;28;20234;-81
2022/07/11 12:39:06;;;;;;;0.90;0.70;;;20.50;99.90;;;;;;5018720;28;20207;-81
2022/07/11 12:41:35;;;;;;;0.95;0.70;;;20.50;99.90;;;;;;5016866;28;20230;-81
2022/07/11 12:46:47;;;;;;;0.90;0.63;;;20.50;99.90;;;;;;5018932;28;20445;-81
2022/07/11 12:49:15;;;;;;;1.10;0.60;;;20.50;99.90;;;;;;5027940;28;20606;-80
2022/07/11 12:51:44;;;;;;;0.90;0.60;;;20.50;99.90;;;;;;5014110;28;20209;-82
2022/07/11 12:54:13;;;;;;;1.20;0.60;;;20.60;99.90;;;;;;5020373;28;20192;-81
2022/07/11 12:56:52;;;;;;;0.90;0.65;;;20.60;99.90;;;;;;5017595;28;20482;-83
2022/07/11 12:59:21;;;;;;;2.20;0.70;;;20.60;99.90;;;;;;5024780;28;20238;-81
2022/07/11 13:02:03;;;;;;;0.90;0.75;;;20.70;99.90;;;;;;5027226;28;20215;-81
2022/07/11 13:04:37;;;;;;;0.93;0.70;;;20.70;99.90;;;;;;5014713;28;20224;-82
2022/07/11 13:10:14;;;;;;;1.33;0.70;;;20.70;99.90;;;;;;5018254;28;20249;-81
2022/07/11 13:12:43;;;;;;;1.55;0.75;;;20.70;99.90;;;;;;5022170;28;20969;-81